sensor_id;sensor_type;location;lat;lon;timestamp;pressure;altitude;pressure_sealevel;temperature;humidity
54248;BME280;40161;39.768;2.722;2023-03-03T00:00:44;101475.44;;;5.19;100.00
54248;BME280;40161;39.768;2.722;2023-03-03T00:03:19;101468.84;;;5.34;100.00
54248;BME280;40161;39.768;2.722;2023-03-03T00:05:45;101479.53;;;5.61;100.00
54248;BME280;40161;39.768;2.722;2023-03-03T00:08:11;101468.94;;;5.60;100.00
54248;BME280;40161;39.768;2.722;2023-03-03T00:10:37;101472.16;;;5.62;100.00
54248;BME280;40161;39.768;2.722;2023-03-03T00:13:03;101476.66;;;5.66;100.00
54248;BME280;40161;39.768;2.722;2023-03-03T00:15:30;101482.72;;;5.32;99.59
54248;BME280;40161;39.768;2.722;2023-03-03T00:17:55;101474.19;;;5.16;99.99
54248;BME280;40161;39.768;2.722;2023-03-03T00:26:14;101478.59;;;5.12;100.00
54248;BME280;40161;39.768;2.722;2023-03-03T00:28:49;101471.03;;;5.23;100.00
54248;BME280;40161;39.768;2.722;2023-03-03T00:31:20;101460.06;;;5.14;100.00
54248;BME280;40161;39.768;2.722;2023-03-03T00:33:51;101461.47;;;5.12;100.00
54248;BME280;40161;39.768;2.722;2023-03-03T00:36:54;101472.78;;;5.28;100.00
54248;BME280;40161;39.768;2.722;2023-03-03T00:39:33;101466.41;;;5.32;100.00
54248;BME280;40161;39.768;2.722;2023-03-03T00:42:00;101466.66;;;5.22;100.00
54248;BME280;40161;39.768;2.722;2023-03-03T00:44:48;101463.13;;;5.53;100.00
54248;BME280;40161;39.768;2.722;2023-03-03T00:47:36;101464.00;;;5.31;100.00
54248;BME280;40161;39.768;2.722;2023-03-03T00:52:39;101470.69;;;5.24;100.00
54248;BME280;40161;39.768;2.722;2023-03-03T00:55:06;101470.00;;;5.19;100.00
54248;BME280;40161;39.768;2.722;2023-03-03T00:57:32;101462.97;;;5.18;100.00
54248;BME280;40161;39.768;2.722;2023-03-03T00:59:58;101469.66;;;5.12;100.00
54248;BME280;40161;39.768;2.722;2023-03-03T01:02:23;101453.16;;;5.08;100.00
54248;BME280;40161;39.768;2.722;2023-03-03T01:04:51;101429.19;;;5.19;100.00
54248;BME280;40161;39.768;2.722;2023-03-03T01:07:17;101459.38;;;5.31;100.00
54248;BME280;40161;39.768;2.722;2023-03-03T01:09:43;101450.66;;;5.20;100.00
54248;BME280;40161;39.768;2.722;2023-03-03T01:12:10;101459.81;;;5.24;100.00
54248;BME280;40161;39.768;2.722;2023-03-03T01:14:39;101452.44;;;5.25;100.00
54248;BME280;40161;39.768;2.722;2023-03-03T01:17:04;101442.31;;;5.17;100.00
54248;BME280;40161;39.768;2.722;2023-03-03T01:19:30;101454.69;;;5.23;100.00
54248;BME280;40161;39.768;2.722;2023-03-03T01:21:56;101451.13;;;5.22;100.00
54248;BME280;40161;39.768;2.722;2023-03-03T01:24:22;101449.03;;;5.19;100.00
54248;BME280;40161;39.768;2.722;2023-03-03T01:26:47;101434.59;;;5.10;100.00
54248;BME280;40161;39.768;2.722;2023-03-03T01:29:13;101390.47;;;4.91;100.00
54248;BME280;40161;39.768;2.722;2023-03-03T01:31:38;101441.91;;;5.32;100.00
54248;BME280;40161;39.768;2.722;2023-03-03T01:34:04;101398.25;;;5.06;100.00
54248;BME280;40161;39.768;2.722;2023-03-03T01:36:31;101446.09;;;5.38;100.00
54248;BME280;40161;39.768;2.722;2023-03-03T01:38:58;101386.53;;;5.06;100.00
54248;BME280;40161;39.768;2.722;2023-03-03T01:41:26;101418.19;;;5.24;100.00
54248;BME280;40161;39.768;2.722;2023-03-03T01:43:54;101426.97;;;5.21;100.00
54248;BME280;40161;39.768;2.722;2023-03-03T01:48:49;101423.00;;;5.27;100.00
54248;BME280;40161;39.768;2.722;2023-03-03T01:51:46;101439.13;;;5.55;100.00
54248;BME280;40161;39.768;2.722;2023-03-03T01:54:22;101413.13;;;5.40;100.00
54248;BME280;40161;39.768;2.722;2023-03-03T01:56:50;101396.34;;;5.07;100.00
54248;BME280;40161;39.768;2.722;2023-03-03T01:59:21;101420.41;;;5.22;100.00
54248;BME280;40161;39.768;2.722;2023-03-03T02:01:48;101370.88;;;5.03;100.00
54248;BME280;40161;39.768;2.722;2023-03-03T02:04:15;101413.84;;;5.54;100.00
54248;BME280;40161;39.768;2.722;2023-03-03T02:06:53;101413.34;;;5.61;100.00
54248;BME280;40161;39.768;2.722;2023-03-03T02:12:40;101401.31;;;5.53;100.00
54248;BME280;40161;39.768;2.722;2023-03-03T02:17:40;101386.53;;;5.06;100.00
54248;BME280;40161;39.768;2.722;2023-03-03T02:20:13;101392.81;;;5.06;100.00
54248;BME280;40161;39.768;2.722;2023-03-03T02:22:57;101360.69;;;4.86;100.00
54248;BME280;40161;39.768;2.722;2023-03-03T02:25:39;101328.34;;;4.84;100.00
54248;BME280;40161;39.768;2.722;2023-03-03T02:28:08;101388.94;;;5.38;100.00
54248;BME280;40161;39.768;2.722;2023-03-03T02:30:37;101382.53;;;5.43;100.00
54248;BME280;40161;39.768;2.722;2023-03-03T02:33:03;101376.22;;;5.16;100.00
54248;BME280;40161;39.768;2.722;2023-03-03T02:35:38;101387.00;;;5.30;100.00
54248;BME280;40161;39.768;2.722;2023-03-03T02:38:29;101383.88;;;5.54;100.00
54248;BME280;40161;39.768;2.722;2023-03-03T02:44:04;101381.69;;;5.25;100.00
54248;BME280;40161;39.768;2.722;2023-03-03T02:46:38;101335.59;;;5.29;100.00
54248;BME280;40161;39.768;2.722;2023-03-03T02:49:05;101375.06;;;5.57;100.00
54248;BME280;40161;39.768;2.722;2023-03-03T02:51:31;101374.88;;;5.45;100.00
54248;BME280;40161;39.768;2.722;2023-03-03T02:53:57;101365.44;;;5.11;100.00
54248;BME280;40161;39.768;2.722;2023-03-03T02:56:23;101364.34;;;5.12;100.00
54248;BME280;40161;39.768;2.722;2023-03-03T02:58:49;101366.44;;;5.15;100.00
54248;BME280;40161;39.768;2.722;2023-03-03T03:01:14;101378.16;;;5.24;100.00
54248;BME280;40161;39.768;2.722;2023-03-03T03:03:40;101380.28;;;5.36;100.00
54248;BME280;40161;39.768;2.722;2023-03-03T03:06:06;101369.16;;;5.55;100.00
54248;BME280;40161;39.768;2.722;2023-03-03T03:08:31;101309.84;;;5.35;100.00
54248;BME280;40161;39.768;2.722;2023-03-03T03:10:57;101350.41;;;5.62;100.00
54248;BME280;40161;39.768;2.722;2023-03-03T03:13:23;101279.00;;;5.08;100.00
54248;BME280;40161;39.768;2.722;2023-03-03T03:15:50;101367.59;;;5.71;100.00
54248;BME280;40161;39.768;2.722;2023-03-03T03:18:15;101351.00;;;5.42;100.00
54248;BME280;40161;39.768;2.722;2023-03-03T03:20:41;101356.28;;;5.47;100.00
54248;BME280;40161;39.768;2.722;2023-03-03T03:23:07;101352.81;;;5.64;100.00
54248;BME280;40161;39.768;2.722;2023-03-03T03:25:33;101349.00;;;5.74;100.00
54248;BME280;40161;39.768;2.722;2023-03-03T03:27:59;101284.53;;;5.34;100.00
54248;BME280;40161;39.768;2.722;2023-03-03T03:30:24;101360.97;;;5.55;100.00
54248;BME280;40161;39.768;2.722;2023-03-03T03:32:50;101346.47;;;5.29;100.00
54248;BME280;40161;39.768;2.722;2023-03-03T03:35:15;101353.03;;;5.28;100.00
54248;BME280;40161;39.768;2.722;2023-03-03T03:37:42;101342.16;;;5.28;100.00
54248;BME280;40161;39.768;2.722;2023-03-03T03:40:10;101346.47;;;5.29;100.00
54248;BME280;40161;39.768;2.722;2023-03-03T03:42:36;101304.13;;;5.05;100.00
54248;BME280;40161;39.768;2.722;2023-03-03T03:45:03;101347.50;;;5.50;100.00
54248;BME280;40161;39.768;2.722;2023-03-03T03:47:29;101360.66;;;5.57;100.00
54248;BME280;40161;39.768;2.722;2023-03-03T03:49:54;101351.63;;;5.39;100.00
54248;BME280;40161;39.768;2.722;2023-03-03T03:52:20;101304.63;;;5.16;100.00
54248;BME280;40161;39.768;2.722;2023-03-03T03:54:45;101347.16;;;5.43;100.00
54248;BME280;40161;39.768;2.722;2023-03-03T03:57:11;101323.00;;;5.41;100.00
54248;BME280;40161;39.768;2.722;2023-03-03T03:59:37;101309.63;;;5.22;100.00
54248;BME280;40161;39.768;2.722;2023-03-03T04:02:03;101319.53;;;5.18;100.00
54248;BME280;40161;39.768;2.722;2023-03-03T04:04:28;101342.03;;;5.41;100.00
54248;BME280;40161;39.768;2.722;2023-03-03T04:06:54;101338.53;;;5.41;100.00
54248;BME280;40161;39.768;2.722;2023-03-03T04:09:19;101332.25;;;5.32;100.00
54248;BME280;40161;39.768;2.722;2023-03-03T04:11:45;101341.19;;;5.32;100.00
54248;BME280;40161;39.768;2.722;2023-03-03T04:14:10;101336.59;;;5.50;100.00
54248;BME280;40161;39.768;2.722;2023-03-03T04:16:36;101344.69;;;5.72;100.00
54248;BME280;40161;39.768;2.722;2023-03-03T04:19:02;101344.22;;;5.79;100.00
54248;BME280;40161;39.768;2.722;2023-03-03T04:21:28;101344.66;;;5.81;100.00
54248;BME280;40161;39.768;2.722;2023-03-03T04:23:53;101334.44;;;5.78;100.00
54248;BME280;40161;39.768;2.722;2023-03-03T04:26:19;101342.03;;;5.41;100.00
54248;BME280;40161;39.768;2.722;2023-03-03T04:28:44;101343.81;;;5.46;100.00
54248;BME280;40161;39.768;2.722;2023-03-03T04:31:10;101304.06;;;5.28;100.00
54248;BME280;40161;39.768;2.722;2023-03-03T04:33:35;101334.84;;;5.37;100.00
54248;BME280;40161;39.768;2.722;2023-03-03T04:36:01;101323.00;;;5.41;100.00
54248;BME280;40161;39.768;2.722;2023-03-03T04:38:26;101333.25;;;5.53;100.00
54248;BME280;40161;39.768;2.722;2023-03-03T04:40:52;101319.31;;;5.46;100.00
54248;BME280;40161;39.768;2.722;2023-03-03T04:43:18;101334.38;;;5.61;100.00
54248;BME280;40161;39.768;2.722;2023-03-03T04:45:43;101319.47;;;5.50;100.00
54248;BME280;40161;39.768;2.722;2023-03-03T04:48:09;101331.50;;;5.57;100.00
54248;BME280;40161;39.768;2.722;2023-03-03T04:50:35;101326.91;;;5.75;100.00
54248;BME280;40161;39.768;2.722;2023-03-03T04:53:00;101286.66;;;5.63;100.00
54248;BME280;40161;39.768;2.722;2023-03-03T04:55:26;101327.06;;;5.87;100.00
54248;BME280;40161;39.768;2.722;2023-03-03T04:57:51;101326.56;;;5.77;100.00
54248;BME280;40161;39.768;2.722;2023-03-03T05:00:17;101318.91;;;5.79;100.00
54248;BME280;40161;39.768;2.722;2023-03-03T05:02:43;101292.75;;;5.78;100.00
54248;BME280;40161;39.768;2.722;2023-03-03T05:05:11;101277.41;;;5.82;100.00
54248;BME280;40161;39.768;2.722;2023-03-03T05:07:38;101328.69;;;5.97;100.00
54248;BME280;40161;39.768;2.722;2023-03-03T05:10:04;101284.56;;;5.52;100.00
54248;BME280;40161;39.768;2.722;2023-03-03T05:12:30;101335.09;;;6.01;100.00
54248;BME280;40161;39.768;2.722;2023-03-03T05:14:56;101286.69;;;5.81;100.00
54248;BME280;40161;39.768;2.722;2023-03-03T05:17:21;101283.16;;;5.89;100.00
54248;BME280;40161;39.768;2.722;2023-03-03T05:19:47;101286.38;;;5.82;100.00
54248;BME280;40161;39.768;2.722;2023-03-03T05:22:12;101295.31;;;5.74;100.00
54248;BME280;40161;39.768;2.722;2023-03-03T05:24:38;101289.72;;;5.88;100.00
54248;BME280;40161;39.768;2.722;2023-03-03T05:27:03;101314.44;;;6.17;100.00
54248;BME280;40161;39.768;2.722;2023-03-03T05:29:30;101325.81;;;6.28;100.00
54248;BME280;40161;39.768;2.722;2023-03-03T05:31:56;101296.81;;;6.06;100.00
54248;BME280;40161;39.768;2.722;2023-03-03T05:34:22;101313.78;;;6.12;100.00
54248;BME280;40161;39.768;2.722;2023-03-03T05:36:48;101333.31;;;6.40;100.00
54248;BME280;40161;39.768;2.722;2023-03-03T05:39:14;101308.16;;;6.26;100.00
54248;BME280;40161;39.768;2.722;2023-03-03T05:41:39;101324.03;;;6.41;100.00
54248;BME280;40161;39.768;2.722;2023-03-03T05:44:05;101297.78;;;6.10;100.00
54248;BME280;40161;39.768;2.722;2023-03-03T05:46:30;101271.97;;;6.08;100.00
54248;BME280;40161;39.768;2.722;2023-03-03T05:48:56;101339.09;;;6.56;100.00
54248;BME280;40161;39.768;2.722;2023-03-03T05:51:21;101301.59;;;6.44;100.00
54248;BME280;40161;39.768;2.722;2023-03-03T05:53:47;101293.22;;;6.49;100.00
54248;BME280;40161;39.768;2.722;2023-03-03T05:56:12;101289.00;;;6.60;100.00
54248;BME280;40161;39.768;2.722;2023-03-03T05:58:38;101343.50;;;6.95;100.00
54248;BME280;40161;39.768;2.722;2023-03-03T06:01:04;101339.13;;;7.03;100.00
54248;BME280;40161;39.768;2.722;2023-03-03T06:03:29;101313.31;;;6.92;100.00
54248;BME280;40161;39.768;2.722;2023-03-03T06:05:56;101298.41;;;6.89;100.00
54248;BME280;40161;39.768;2.722;2023-03-03T06:08:21;101335.69;;;7.14;100.00
54248;BME280;40161;39.768;2.722;2023-03-03T06:10:47;101337.91;;;7.21;100.00
54248;BME280;40161;39.768;2.722;2023-03-03T06:13:12;101325.22;;;7.25;100.00
54248;BME280;40161;39.768;2.722;2023-03-03T06:15:38;101326.50;;;7.28;100.00
54248;BME280;40161;39.768;2.722;2023-03-03T06:18:04;101354.84;;;7.44;100.00
54248;BME280;40161;39.768;2.722;2023-03-03T06:20:29;101348.34;;;7.28;100.00
54248;BME280;40161;39.768;2.722;2023-03-03T06:22:55;101349.19;;;7.20;100.00
54248;BME280;40161;39.768;2.722;2023-03-03T06:25:20;101348.41;;;7.10;100.00
54248;BME280;40161;39.768;2.722;2023-03-03T06:27:46;101347.59;;;7.10;100.00
54248;BME280;40161;39.768;2.722;2023-03-03T06:30:12;101357.00;;;7.30;100.00
54248;BME280;40161;39.768;2.722;2023-03-03T06:32:38;101348.19;;;7.24;100.00
54248;BME280;40161;39.768;2.722;2023-03-03T06:35:04;101363.13;;;7.27;100.00
54248;BME280;40161;39.768;2.722;2023-03-03T06:37:29;101362.91;;;7.41;100.00
54248;BME280;40161;39.768;2.722;2023-03-03T06:39:55;101353.91;;;7.40;100.00
54248;BME280;40161;39.768;2.722;2023-03-03T06:42:20;101364.63;;;7.45;100.00
54248;BME280;40161;39.768;2.722;2023-03-03T06:44:46;101323.97;;;7.23;100.00
54248;BME280;40161;39.768;2.722;2023-03-03T06:47:12;101352.44;;;7.43;100.00
54248;BME280;40161;39.768;2.722;2023-03-03T06:49:37;101370.75;;;7.42;100.00
54248;BME280;40161;39.768;2.722;2023-03-03T06:52:16;101370.09;;;7.45;100.00
54248;BME280;40161;39.768;2.722;2023-03-03T06:54:43;101364.31;;;7.47;100.00
54248;BME280;40161;39.768;2.722;2023-03-03T06:59:57;101372.94;;;7.57;100.00
54248;BME280;40161;39.768;2.722;2023-03-03T07:02:22;101380.31;;;7.57;100.00
54248;BME280;40161;39.768;2.722;2023-03-03T07:04:48;101374.84;;;7.57;100.00
54248;BME280;40161;39.768;2.722;2023-03-03T07:07:22;101376.13;;;7.59;100.00
54248;BME280;40161;39.768;2.722;2023-03-03T07:09:51;101331.16;;;7.27;100.00
54248;BME280;40161;39.768;2.722;2023-03-03T07:12:23;101367.66;;;7.52;100.00
54248;BME280;40161;39.768;2.722;2023-03-03T07:14:51;101394.28;;;7.64;100.00
54248;BME280;40161;39.768;2.722;2023-03-03T07:17:23;101400.56;;;7.56;100.00
54248;BME280;40161;39.768;2.722;2023-03-03T07:19:50;101402.78;;;7.63;100.00
54248;BME280;40161;39.768;2.722;2023-03-03T07:22:18;101369.78;;;7.47;100.00
54248;BME280;40161;39.768;2.722;2023-03-03T07:24:46;101404.00;;;7.74;100.00
54248;BME280;40161;39.768;2.722;2023-03-03T07:27:25;101399.69;;;7.73;100.00
54248;BME280;40161;39.768;2.722;2023-03-03T07:29:53;101413.06;;;7.66;100.00
54248;BME280;40161;39.768;2.722;2023-03-03T07:32:31;101406.66;;;7.61;100.00
54248;BME280;40161;39.768;2.722;2023-03-03T07:35:00;101414.00;;;7.70;100.00
54248;BME280;40161;39.768;2.722;2023-03-03T07:37:34;101423.94;;;7.74;100.00
54248;BME280;40161;39.768;2.722;2023-03-03T07:40:05;101417.53;;;7.70;100.00
54248;BME280;40161;39.768;2.722;2023-03-03T07:42:45;101431.47;;;7.77;100.00
54248;BME280;40161;39.768;2.722;2023-03-03T07:45:24;101442.88;;;7.79;100.00
54248;BME280;40161;39.768;2.722;2023-03-03T07:47:50;101419.94;;;7.72;100.00
54248;BME280;40161;39.768;2.722;2023-03-03T07:50:21;101446.22;;;7.85;100.00
54248;BME280;40161;39.768;2.722;2023-03-03T07:52:55;101439.50;;;7.82;100.00
54248;BME280;40161;39.768;2.722;2023-03-03T07:57:59;101460.19;;;7.92;100.00
54248;BME280;40161;39.768;2.722;2023-03-03T08:02:59;101453.16;;;7.82;100.00
54248;BME280;40161;39.768;2.722;2023-03-03T08:05:35;101439.16;;;7.84;100.00
54248;BME280;40161;39.768;2.722;2023-03-03T08:10:49;101460.84;;;7.89;100.00
54248;BME280;40161;39.768;2.722;2023-03-03T08:13:23;101453.47;;;7.81;100.00
54248;BME280;40161;39.768;2.722;2023-03-03T08:15:57;101410.13;;;7.32;100.00
54248;BME280;40161;39.768;2.722;2023-03-03T08:18:28;101431.13;;;7.49;100.00
54248;BME280;40161;39.768;2.722;2023-03-03T08:20:59;101430.66;;;7.47;100.00
54248;BME280;40161;39.768;2.722;2023-03-03T08:23:25;101474.47;;;7.59;100.00
54248;BME280;40161;39.768;2.722;2023-03-03T08:25:51;101473.78;;;7.71;100.00
54248;BME280;40161;39.768;2.722;2023-03-03T08:28:18;101460.28;;;7.66;100.00
54248;BME280;40161;39.768;2.722;2023-03-03T08:30:44;101439.56;;;7.65;100.00
54248;BME280;40161;39.768;2.722;2023-03-03T08:33:10;101435.28;;;7.55;100.00
54248;BME280;40161;39.768;2.722;2023-03-03T08:35:37;101429.97;;;7.59;100.00
54248;BME280;40161;39.768;2.722;2023-03-03T08:38:04;101483.16;;;7.91;100.00
54248;BME280;40161;39.768;2.722;2023-03-03T08:40:31;101466.03;;;7.82;100.00
54248;BME280;40161;39.768;2.722;2023-03-03T08:42:56;101471.94;;;7.84;100.00
54248;BME280;40161;39.768;2.722;2023-03-03T08:45:23;101439.88;;;7.72;100.00
54248;BME280;40161;39.768;2.722;2023-03-03T08:47:49;101465.03;;;7.87;100.00
54248;BME280;40161;39.768;2.722;2023-03-03T08:50:15;101481.03;;;7.97;100.00
54248;BME280;40161;39.768;2.722;2023-03-03T08:52:41;101478.66;;;7.95;100.00
54248;BME280;40161;39.768;2.722;2023-03-03T08:55:07;101474.13;;;7.99;100.00
54248;BME280;40161;39.768;2.722;2023-03-03T08:57:32;101479.59;;;7.99;100.00
54248;BME280;40161;39.768;2.722;2023-03-03T08:59:58;101486.56;;;7.88;100.00
54248;BME280;40161;39.768;2.722;2023-03-03T09:02:24;101480.91;;;7.93;100.00
54248;BME280;40161;39.768;2.722;2023-03-03T09:04:49;101486.56;;;7.88;100.00
54248;BME280;40161;39.768;2.722;2023-03-03T09:07:15;101478.97;;;7.94;100.00
54248;BME280;40161;39.768;2.722;2023-03-03T09:09:40;101436.63;;;7.79;100.00
54248;BME280;40161;39.768;2.722;2023-03-03T09:12:24;101446.31;;;7.97;100.00
54248;BME280;40161;39.768;2.722;2023-03-03T09:14:51;101487.97;;;8.24;100.00
54248;BME280;40161;39.768;2.722;2023-03-03T09:17:33;101490.50;;;8.29;100.00
54248;BME280;40161;39.768;2.722;2023-03-03T09:20:55;101492.72;;;8.36;100.00
54248;BME280;40161;39.768;2.722;2023-03-03T09:22:57;101446.75;;;8.29;100.00
54248;BME280;40161;39.768;2.722;2023-03-03T09:25:32;101475.66;;;8.60;100.00
54248;BME280;40161;39.768;2.722;2023-03-03T09:28:00;101483.69;;;8.65;100.00
54248;BME280;40161;39.768;2.722;2023-03-03T09:30:36;101445.97;;;8.49;100.00
54248;BME280;40161;39.768;2.722;2023-03-03T09:33:45;101487.97;;;8.74;100.00
54248;BME280;40161;39.768;2.722;2023-03-03T09:36:29;101467.53;;;8.72;100.00
54248;BME280;40161;39.768;2.722;2023-03-03T09:39:00;101470.13;;;8.68;100.00
54248;BME280;40161;39.768;2.722;2023-03-03T09:45:02;101497.63;;;8.93;100.00
54248;BME280;40161;39.768;2.722;2023-03-03T09:53:10;101503.97;;;9.18;100.00
54248;BME280;40161;39.768;2.722;2023-03-03T10:26:25;101511.28;;;9.59;100.00
54248;BME280;40161;39.768;2.722;2023-03-03T10:40:25;101503.63;;;9.77;100.00
54248;BME280;40161;39.768;2.722;2023-03-03T10:43:08;101501.94;;;9.85;100.00
54248;BME280;40161;39.768;2.722;2023-03-03T10:45:41;101516.91;;;9.99;99.60
54248;BME280;40161;39.768;2.722;2023-03-03T10:48:22;101497.16;;;10.06;94.84
54248;BME280;40161;39.768;2.722;2023-03-03T10:51:21;101484.00;;;9.99;89.27
54248;BME280;40161;39.768;2.722;2023-03-03T10:57:14;101497.16;;;10.43;88.25
54248;BME280;40161;39.768;2.722;2023-03-03T11:00:15;101496.22;;;10.39;82.77
54248;BME280;40161;39.768;2.722;2023-03-03T11:03:06;101507.75;;;10.57;81.32
54248;BME280;40161;39.768;2.722;2023-03-03T11:05:42;101508.16;;;10.71;77.05
54248;BME280;40161;39.768;2.722;2023-03-03T11:10:57;101506.22;;;11.00;79.19
54248;BME280;40161;39.768;2.722;2023-03-03T11:13:51;101499.91;;;11.11;78.75
54248;BME280;40161;39.768;2.722;2023-03-03T11:30:48;101481.84;;;11.26;74.20
54248;BME280;40161;39.768;2.722;2023-03-03T11:38:48;101458.28;;;10.97;75.83
54248;BME280;40161;39.768;2.722;2023-03-03T11:44:16;101482.78;;;11.18;74.45
54248;BME280;40161;39.768;2.722;2023-03-03T11:46:47;101492.09;;;11.13;73.43
54248;BME280;40161;39.768;2.722;2023-03-03T11:57:40;101460.31;;;10.84;73.60
54248;BME280;40161;39.768;2.722;2023-03-03T12:02:57;101489.59;;;11.08;74.63
54248;BME280;40161;39.768;2.722;2023-03-03T12:08:35;101493.75;;;11.18;73.91
54248;BME280;40161;39.768;2.722;2023-03-03T12:17:00;101489.88;;;11.19;73.32
54248;BME280;40161;39.768;2.722;2023-03-03T12:24:49;101488.28;;;11.18;72.89
54248;BME280;40161;39.768;2.722;2023-03-03T12:36:07;101462.84;;;11.05;73.30
54248;BME280;40161;39.768;2.722;2023-03-03T12:41:26;101467.22;;;11.22;72.65
54248;BME280;40161;39.768;2.722;2023-03-03T12:49:17;101435.41;;;11.37;69.58
54248;BME280;40161;39.768;2.722;2023-03-03T12:54:24;101448.72;;;11.67;70.55
54248;BME280;40161;39.768;2.722;2023-03-03T12:56:57;101443.28;;;11.70;68.24
54248;BME280;40161;39.768;2.722;2023-03-03T13:17:00;101399.56;;;11.65;66.45
54248;BME280;40161;39.768;2.722;2023-03-03T13:19:53;101429.97;;;11.72;67.97
54248;BME280;40161;39.768;2.722;2023-03-03T13:22:34;101377.59;;;11.33;66.93
54248;BME280;40161;39.768;2.722;2023-03-03T13:25:10;101427.16;;;11.53;67.91
54248;BME280;40161;39.768;2.722;2023-03-03T13:27:43;101404.38;;;11.36;69.01
54248;BME280;40161;39.768;2.722;2023-03-03T13:30:21;101415.09;;;11.41;69.50
54248;BME280;40161;39.768;2.722;2023-03-03T13:32:53;101441.16;;;11.48;69.22
54248;BME280;40161;39.768;2.722;2023-03-03T13:38:09;101428.28;;;11.52;69.47
54248;BME280;40161;39.768;2.722;2023-03-03T13:40:45;101397.38;;;11.23;69.59
54248;BME280;40161;39.768;2.722;2023-03-03T14:00:15;101403.56;;;11.20;69.61
54248;BME280;40161;39.768;2.722;2023-03-03T14:05:48;101359.59;;;11.04;71.96
54248;BME280;40161;39.768;2.722;2023-03-03T14:16:49;101406.22;;;11.64;66.69
54248;BME280;40161;39.768;2.722;2023-03-03T14:19:32;101406.47;;;11.75;66.72
54248;BME280;40161;39.768;2.722;2023-03-03T14:22:40;101395.09;;;11.76;68.97
54248;BME280;40161;39.768;2.722;2023-03-03T14:25:13;101402.28;;;11.81;67.80
54248;BME280;40161;39.768;2.722;2023-03-03T14:30:38;101392.09;;;11.81;70.33
54248;BME280;40161;39.768;2.722;2023-03-03T14:35:34;101396.53;;;11.86;66.78
54248;BME280;40161;39.768;2.722;2023-03-03T14:38:08;101383.38;;;11.79;63.95
54248;BME280;40161;39.768;2.722;2023-03-03T14:40:38;101395.81;;;11.89;65.78
54248;BME280;40161;39.768;2.722;2023-03-03T14:43:25;101388.81;;;11.92;65.51
54248;BME280;40161;39.768;2.722;2023-03-03T14:45:52;101378.97;;;11.91;66.93
54248;BME280;40161;39.768;2.722;2023-03-03T14:48:25;101376.00;;;11.83;66.43
54248;BME280;40161;39.768;2.722;2023-03-03T14:51:22;101381.44;;;11.96;67.37
54248;BME280;40161;39.768;2.722;2023-03-03T14:53:48;101391.97;;;11.94;66.17
54248;BME280;40161;39.768;2.722;2023-03-03T14:56:32;101397.22;;;11.99;67.10
54248;BME280;40161;39.768;2.722;2023-03-03T14:59:20;101400.75;;;11.99;67.50
54248;BME280;40161;39.768;2.722;2023-03-03T15:04:33;101390.69;;;11.87;67.28
54248;BME280;40161;39.768;2.722;2023-03-03T15:09:49;101402.28;;;11.97;68.50
54248;BME280;40161;39.768;2.722;2023-03-03T15:12:26;101396.06;;;12.00;68.86
54248;BME280;40161;39.768;2.722;2023-03-03T15:20:41;101399.34;;;12.05;69.12
54248;BME280;40161;39.768;2.722;2023-03-03T15:28:58;101395.72;;;12.01;68.46
54248;BME280;40161;39.768;2.722;2023-03-03T15:50:58;101402.03;;;11.86;68.62
54248;BME280;40161;39.768;2.722;2023-03-03T16:01:34;101394.94;;;11.85;66.95
54248;BME280;40161;39.768;2.722;2023-03-03T16:04:15;101397.31;;;11.86;68.71
54248;BME280;40161;39.768;2.722;2023-03-03T16:20:35;101373.94;;;11.61;68.65
54248;BME280;40161;39.768;2.722;2023-03-03T16:26:12;101421.22;;;11.67;68.43
54248;BME280;40161;39.768;2.722;2023-03-03T16:31:42;101424.13;;;11.58;70.92
54248;BME280;40161;39.768;2.722;2023-03-03T16:37:31;101411.75;;;11.32;69.53
54248;BME280;40161;39.768;2.722;2023-03-03T16:40:22;101423.69;;;11.40;69.92
54248;BME280;40161;39.768;2.722;2023-03-03T16:43:06;101415.63;;;11.31;71.72
54248;BME280;40161;39.768;2.722;2023-03-03T16:45:39;101431.50;;;11.38;72.37
54248;BME280;40161;39.768;2.722;2023-03-03T16:51:12;101432.28;;;11.23;73.24
54248;BME280;40161;39.768;2.722;2023-03-03T16:54:00;101436.72;;;11.11;75.10
54248;BME280;40161;39.768;2.722;2023-03-03T16:56:47;101409.81;;;10.89;74.95
54248;BME280;40161;39.768;2.722;2023-03-03T16:59:28;101407.03;;;10.73;75.61
54248;BME280;40161;39.768;2.722;2023-03-03T17:04:45;101451.88;;;10.77;75.46
54248;BME280;40161;39.768;2.722;2023-03-03T17:07:31;101423.25;;;10.50;78.75
54248;BME280;40161;39.768;2.722;2023-03-03T17:10:24;101465.81;;;10.72;78.37
54248;BME280;40161;39.768;2.722;2023-03-03T17:12:59;101470.84;;;10.70;78.65
54248;BME280;40161;39.768;2.722;2023-03-03T17:15:50;101461.53;;;10.59;77.73
54248;BME280;40161;39.768;2.722;2023-03-03T17:18:50;101473.44;;;10.51;78.49
54248;BME280;40161;39.768;2.722;2023-03-03T17:21:54;101484.03;;;10.64;78.86
54248;BME280;40161;39.768;2.722;2023-03-03T17:32:23;101487.78;;;10.19;79.65
54248;BME280;40161;39.768;2.722;2023-03-03T17:41:18;101507.28;;;10.42;81.38
54248;BME280;40161;39.768;2.722;2023-03-03T17:44:01;101511.56;;;10.40;80.65
54248;BME280;40161;39.768;2.722;2023-03-03T17:46:33;101512.34;;;10.40;81.38
54248;BME280;40161;39.768;2.722;2023-03-03T18:05:50;101532.88;;;9.73;85.18
54248;BME280;40161;39.768;2.722;2023-03-03T18:11:26;101539.09;;;9.49;88.95
54248;BME280;40161;39.768;2.722;2023-03-03T18:22:17;101517.06;;;9.45;87.42
54248;BME280;40161;39.768;2.722;2023-03-03T18:46:44;101563.59;;;9.00;88.68
54248;BME280;40161;39.768;2.722;2023-03-03T19:02:32;101596.63;;;8.36;89.67
54248;BME280;40161;39.768;2.722;2023-03-03T19:12:50;101599.16;;;8.11;91.64
54248;BME280;40161;39.768;2.722;2023-03-03T19:17:58;101605.31;;;8.46;92.32
54248;BME280;40161;39.768;2.722;2023-03-03T19:20:25;101606.78;;;8.35;93.10